sensor_id;sensor_type;location;lat;lon;timestamp;temperature;humidity
18365;DHT22;9309;52.126;11.616;2023-03-23T00:01:57;11.30;66.90
18365;DHT22;9309;52.126;11.616;2023-03-23T00:04:23;11.30;66.60
18365;DHT22;9309;52.126;11.616;2023-03-23T00:06:52;11.40;65.80
18365;DHT22;9309;52.126;11.616;2023-03-23T00:09:19;11.40;66.60
18365;DHT22;9309;52.126;11.616;2023-03-23T00:11:49;11.50;64.70
18365;DHT22;9309;52.126;11.616;2023-03-23T00:14:18;11.70;65.70
18365;DHT22;9309;52.126;11.616;2023-03-23T00:16:48;11.70;64.40
18365;DHT22;9309;52.126;11.616;2023-03-23T00:19:16;11.80;65.00
18365;DHT22;9309;52.126;11.616;2023-03-23T00:21:45;11.80;64.30
18365;DHT22;9309;52.126;11.616;2023-03-23T00:24:13;11.90;64.00
18365;DHT22;9309;52.126;11.616;2023-03-23T00:26:43;12.00;64.00
18365;DHT22;9309;52.126;11.616;2023-03-23T00:29:13;12.20;63.10
18365;DHT22;9309;52.126;11.616;2023-03-23T00:31:42;12.10;62.80
18365;DHT22;9309;52.126;11.616;2023-03-23T00:34:12;12.30;63.20
18365;DHT22;9309;52.126;11.616;2023-03-23T00:36:45;12.10;62.30
18365;DHT22;9309;52.126;11.616;2023-03-23T00:39:12;12.00;63.40
18365;DHT22;9309;52.126;11.616;2023-03-23T00:41:41;12.00;62.80
18365;DHT22;9309;52.126;11.616;2023-03-23T00:44:08;12.00;63.50
18365;DHT22;9309;52.126;11.616;2023-03-23T00:46:35;12.10;62.50
18365;DHT22;9309;52.126;11.616;2023-03-23T00:49:12;12.00;62.50
18365;DHT22;9309;52.126;11.616;2023-03-23T00:51:39;12.30;60.60
18365;DHT22;9309;52.126;11.616;2023-03-23T00:54:06;12.40;60.40
18365;DHT22;9309;52.126;11.616;2023-03-23T00:56:33;12.60;59.60
18365;DHT22;9309;52.126;11.616;2023-03-23T00:59:00;12.60;59.70
18365;DHT22;9309;52.126;11.616;2023-03-23T01:01:27;12.60;59.70
18365;DHT22;9309;52.126;11.616;2023-03-23T01:03:57;12.60;59.50
18365;DHT22;9309;52.126;11.616;2023-03-23T01:06:28;12.60;59.10
18365;DHT22;9309;52.126;11.616;2023-03-23T01:08:56;12.60;59.70
18365;DHT22;9309;52.126;11.616;2023-03-23T01:11:24;12.60;60.20
18365;DHT22;9309;52.126;11.616;2023-03-23T01:13:51;12.60;60.20
18365;DHT22;9309;52.126;11.616;2023-03-23T01:16:20;12.50;60.40
18365;DHT22;9309;52.126;11.616;2023-03-23T01:18:47;12.50;61.50
18365;DHT22;9309;52.126;11.616;2023-03-23T01:21:15;12.60;61.60
18365;DHT22;9309;52.126;11.616;2023-03-23T01:23:43;12.50;62.80
18365;DHT22;9309;52.126;11.616;2023-03-23T01:26:12;12.30;62.40
18365;DHT22;9309;52.126;11.616;2023-03-23T01:28:40;12.30;63.20
18365;DHT22;9309;52.126;11.616;2023-03-23T01:31:08;12.40;63.20
18365;DHT22;9309;52.126;11.616;2023-03-23T01:33:38;12.20;63.20
18365;DHT22;9309;52.126;11.616;2023-03-23T01:36:07;12.10;63.80
18365;DHT22;9309;52.126;11.616;2023-03-23T01:38:35;12.10;64.20
18365;DHT22;9309;52.126;11.616;2023-03-23T01:41:04;12.00;64.60
18365;DHT22;9309;52.126;11.616;2023-03-23T01:43:31;12.00;64.50
18365;DHT22;9309;52.126;11.616;2023-03-23T01:45:58;12.00;64.00
18365;DHT22;9309;52.126;11.616;2023-03-23T01:48:27;12.00;63.60
18365;DHT22;9309;52.126;11.616;2023-03-23T01:50:57;12.00;63.70
18365;DHT22;9309;52.126;11.616;2023-03-23T01:53:28;12.10;63.60
18365;DHT22;9309;52.126;11.616;2023-03-23T01:55:57;12.10;63.80
18365;DHT22;9309;52.126;11.616;2023-03-23T01:58:29;12.00;64.00
18365;DHT22;9309;52.126;11.616;2023-03-23T02:00:58;12.00;63.80
18365;DHT22;9309;52.126;11.616;2023-03-23T02:03:28;12.00;63.90
18365;DHT22;9309;52.126;11.616;2023-03-23T02:05:57;12.00;64.00
18365;DHT22;9309;52.126;11.616;2023-03-23T02:08:39;12.00;64.20
18365;DHT22;9309;52.126;11.616;2023-03-23T02:11:12;12.10;65.50
18365;DHT22;9309;52.126;11.616;2023-03-23T02:13:42;12.00;65.30
18365;DHT22;9309;52.126;11.616;2023-03-23T02:16:16;12.20;65.20
18365;DHT22;9309;52.126;11.616;2023-03-23T02:18:53;12.10;64.00
18365;DHT22;9309;52.126;11.616;2023-03-23T02:24:52;12.20;66.10
18365;DHT22;9309;52.126;11.616;2023-03-23T02:27:39;12.40;65.90
18365;DHT22;9309;52.126;11.616;2023-03-23T02:33:34;12.50;68.10
18365;DHT22;9309;52.126;11.616;2023-03-23T02:36:05;12.40;68.00
18365;DHT22;9309;52.126;11.616;2023-03-23T02:38:42;12.40;66.70
18365;DHT22;9309;52.126;11.616;2023-03-23T02:41:18;12.40;65.70
18365;DHT22;9309;52.126;11.616;2023-03-23T02:43:46;12.30;66.40
18365;DHT22;9309;52.126;11.616;2023-03-23T02:46:14;12.30;68.40
18365;DHT22;9309;52.126;11.616;2023-03-23T02:48:44;12.10;69.10
18365;DHT22;9309;52.126;11.616;2023-03-23T02:51:15;12.20;69.40
18365;DHT22;9309;52.126;11.616;2023-03-23T02:53:43;12.00;72.00
18365;DHT22;9309;52.126;11.616;2023-03-23T02:56:12;11.80;73.00
18365;DHT22;9309;52.126;11.616;2023-03-23T02:58:40;12.10;72.10
18365;DHT22;9309;52.126;11.616;2023-03-23T03:01:16;12.30;71.40
18365;DHT22;9309;52.126;11.616;2023-03-23T03:04:06;12.30;71.90
18365;DHT22;9309;52.126;11.616;2023-03-23T03:06:46;12.20;73.30
18365;DHT22;9309;52.126;11.616;2023-03-23T03:09:22;12.10;73.80
18365;DHT22;9309;52.126;11.616;2023-03-23T03:11:56;12.00;74.10
18365;DHT22;9309;52.126;11.616;2023-03-23T03:14:28;11.70;76.30
18365;DHT22;9309;52.126;11.616;2023-03-23T03:17:00;11.90;74.90
18365;DHT22;9309;52.126;11.616;2023-03-23T03:19:33;11.90;74.40
18365;DHT22;9309;52.126;11.616;2023-03-23T03:22:02;11.70;72.00
18365;DHT22;9309;52.126;11.616;2023-03-23T03:24:38;11.60;71.80
18365;DHT22;9309;52.126;11.616;2023-03-23T03:27:11;11.50;71.20
18365;DHT22;9309;52.126;11.616;2023-03-23T03:29:46;11.50;70.10
18365;DHT22;9309;52.126;11.616;2023-03-23T03:32:21;11.70;69.50
18365;DHT22;9309;52.126;11.616;2023-03-23T03:34:51;12.00;68.70
18365;DHT22;9309;52.126;11.616;2023-03-23T03:37:19;12.10;67.80
18365;DHT22;9309;52.126;11.616;2023-03-23T03:39:48;12.20;67.30
18365;DHT22;9309;52.126;11.616;2023-03-23T03:42:16;12.30;67.30
18365;DHT22;9309;52.126;11.616;2023-03-23T03:44:43;12.50;66.90
18365;DHT22;9309;52.126;11.616;2023-03-23T03:47:10;12.50;66.60
18365;DHT22;9309;52.126;11.616;2023-03-23T03:49:36;12.60;66.70
18365;DHT22;9309;52.126;11.616;2023-03-23T03:52:04;12.50;66.50
18365;DHT22;9309;52.126;11.616;2023-03-23T03:54:38;12.60;66.40
18365;DHT22;9309;52.126;11.616;2023-03-23T03:57:05;12.60;66.40
18365;DHT22;9309;52.126;11.616;2023-03-23T04:00:09;12.70;66.90
18365;DHT22;9309;52.126;11.616;2023-03-23T04:02:43;12.70;67.30
18365;DHT22;9309;52.126;11.616;2023-03-23T04:05:13;12.60;68.00
18365;DHT22;9309;52.126;11.616;2023-03-23T04:07:42;12.30;70.90
18365;DHT22;9309;52.126;11.616;2023-03-23T04:10:10;11.90;72.70
18365;DHT22;9309;52.126;11.616;2023-03-23T04:12:39;11.80;73.40
18365;DHT22;9309;52.126;11.616;2023-03-23T04:15:29;11.70;74.30
18365;DHT22;9309;52.126;11.616;2023-03-23T04:17:56;11.60;74.70
18365;DHT22;9309;52.126;11.616;2023-03-23T04:20:24;11.40;76.10
18365;DHT22;9309;52.126;11.616;2023-03-23T04:22:54;11.40;76.50
18365;DHT22;9309;52.126;11.616;2023-03-23T04:25:23;11.10;77.70
18365;DHT22;9309;52.126;11.616;2023-03-23T04:27:52;11.10;78.00
18365;DHT22;9309;52.126;11.616;2023-03-23T04:30:24;11.10;78.30
18365;DHT22;9309;52.126;11.616;2023-03-23T04:33:08;11.10;78.00
18365;DHT22;9309;52.126;11.616;2023-03-23T04:35:41;11.10;77.60
18365;DHT22;9309;52.126;11.616;2023-03-23T04:38:18;11.10;78.20
18365;DHT22;9309;52.126;11.616;2023-03-23T04:40:47;11.00;78.20
18365;DHT22;9309;52.126;11.616;2023-03-23T04:43:36;11.10;78.40
18365;DHT22;9309;52.126;11.616;2023-03-23T04:46:22;11.10;78.70
18365;DHT22;9309;52.126;11.616;2023-03-23T04:48:51;11.00;79.50
18365;DHT22;9309;52.126;11.616;2023-03-23T04:51:23;10.90;79.70
18365;DHT22;9309;52.126;11.616;2023-03-23T04:53:54;10.90;80.40
18365;DHT22;9309;52.126;11.616;2023-03-23T04:56:23;10.90;81.10
18365;DHT22;9309;52.126;11.616;2023-03-23T04:58:51;11.00;81.80
18365;DHT22;9309;52.126;11.616;2023-03-23T05:01:50;10.90;81.80
18365;DHT22;9309;52.126;11.616;2023-03-23T05:04:19;11.10;81.50
18365;DHT22;9309;52.126;11.616;2023-03-23T05:06:58;11.20;81.90
18365;DHT22;9309;52.126;11.616;2023-03-23T05:09:30;11.00;81.00
18365;DHT22;9309;52.126;11.616;2023-03-23T05:11:56;10.90;83.00
18365;DHT22;9309;52.126;11.616;2023-03-23T05:14:25;10.80;84.00
18365;DHT22;9309;52.126;11.616;2023-03-23T05:17:01;10.70;83.80
18365;DHT22;9309;52.126;11.616;2023-03-23T05:19:27;10.70;83.50
18365;DHT22;9309;52.126;11.616;2023-03-23T05:21:56;10.60;83.90
18365;DHT22;9309;52.126;11.616;2023-03-23T05:24:31;10.70;83.80
18365;DHT22;9309;52.126;11.616;2023-03-23T05:27:00;10.70;83.30
18365;DHT22;9309;52.126;11.616;2023-03-23T05:29:32;10.80;82.70
18365;DHT22;9309;52.126;11.616;2023-03-23T05:32:01;10.70;83.50
18365;DHT22;9309;52.126;11.616;2023-03-23T05:34:28;10.60;84.10
18365;DHT22;9309;52.126;11.616;2023-03-23T05:36:58;10.60;84.40
18365;DHT22;9309;52.126;11.616;2023-03-23T05:39:44;10.60;84.40
18365;DHT22;9309;52.126;11.616;2023-03-23T05:42:17;10.70;84.00
18365;DHT22;9309;52.126;11.616;2023-03-23T05:44:53;10.80;84.60
18365;DHT22;9309;52.126;11.616;2023-03-23T05:47:20;10.70;84.70
18365;DHT22;9309;52.126;11.616;2023-03-23T05:49:52;10.50;86.40
18365;DHT22;9309;52.126;11.616;2023-03-23T05:52:21;10.40;87.10
18365;DHT22;9309;52.126;11.616;2023-03-23T05:54:51;10.30;86.90
18365;DHT22;9309;52.126;11.616;2023-03-23T05:57:19;10.60;86.50
18365;DHT22;9309;52.126;11.616;2023-03-23T05:59:59;10.50;86.20
18365;DHT22;9309;52.126;11.616;2023-03-23T06:02:38;10.50;86.40
18365;DHT22;9309;52.126;11.616;2023-03-23T06:05:09;10.50;86.70
18365;DHT22;9309;52.126;11.616;2023-03-23T06:07:38;10.50;86.80
18365;DHT22;9309;52.126;11.616;2023-03-23T06:10:09;10.50;86.50
18365;DHT22;9309;52.126;11.616;2023-03-23T06:12:41;10.50;86.90
18365;DHT22;9309;52.126;11.616;2023-03-23T06:15:19;10.50;87.50
18365;DHT22;9309;52.126;11.616;2023-03-23T06:18:13;10.50;87.80
18365;DHT22;9309;52.126;11.616;2023-03-23T06:21:09;10.50;86.70
18365;DHT22;9309;52.126;11.616;2023-03-23T06:23:46;10.60;86.30
18365;DHT22;9309;52.126;11.616;2023-03-23T06:26:17;10.60;86.40
18365;DHT22;9309;52.126;11.616;2023-03-23T06:28:47;10.60;86.50
18365;DHT22;9309;52.126;11.616;2023-03-23T06:31:15;10.70;86.10
18365;DHT22;9309;52.126;11.616;2023-03-23T06:33:43;10.70;86.20
18365;DHT22;9309;52.126;11.616;2023-03-23T06:36:25;10.70;85.90
18365;DHT22;9309;52.126;11.616;2023-03-23T06:39:18;10.80;85.40
18365;DHT22;9309;52.126;11.616;2023-03-23T06:41:57;10.90;84.20
18365;DHT22;9309;52.126;11.616;2023-03-23T06:44:29;11.00;84.00
18365;DHT22;9309;52.126;11.616;2023-03-23T06:46:56;11.00;83.10
18365;DHT22;9309;52.126;11.616;2023-03-23T06:49:26;11.10;83.50
18365;DHT22;9309;52.126;11.616;2023-03-23T06:52:01;11.10;83.10
18365;DHT22;9309;52.126;11.616;2023-03-23T06:54:30;11.10;82.60
18365;DHT22;9309;52.126;11.616;2023-03-23T06:57:00;11.10;81.60
18365;DHT22;9309;52.126;11.616;2023-03-23T06:59:27;11.20;81.60
18365;DHT22;9309;52.126;11.616;2023-03-23T07:01:54;11.20;81.40
18365;DHT22;9309;52.126;11.616;2023-03-23T07:04:21;11.30;81.50
18365;DHT22;9309;52.126;11.616;2023-03-23T07:06:57;11.30;81.10
18365;DHT22;9309;52.126;11.616;2023-03-23T07:09:23;11.40;80.40
18365;DHT22;9309;52.126;11.616;2023-03-23T07:11:50;11.40;79.90
18365;DHT22;9309;52.126;11.616;2023-03-23T07:14:33;11.40;79.90
18365;DHT22;9309;52.126;11.616;2023-03-23T07:17:00;11.50;79.10
18365;DHT22;9309;52.126;11.616;2023-03-23T07:19:28;11.50;78.80
18365;DHT22;9309;52.126;11.616;2023-03-23T07:21:55;11.40;79.00
18365;DHT22;9309;52.126;11.616;2023-03-23T07:24:23;11.50;79.00
18365;DHT22;9309;52.126;11.616;2023-03-23T07:27:00;11.50;79.30
18365;DHT22;9309;52.126;11.616;2023-03-23T07:29:28;11.50;79.80
18365;DHT22;9309;52.126;11.616;2023-03-23T07:32:06;11.50;79.30
18365;DHT22;9309;52.126;11.616;2023-03-23T07:34:36;11.60;78.50
18365;DHT22;9309;52.126;11.616;2023-03-23T07:37:12;11.60;78.70
18365;DHT22;9309;52.126;11.616;2023-03-23T07:39:42;11.50;78.80
18365;DHT22;9309;52.126;11.616;2023-03-23T07:42:10;11.50;78.90
18365;DHT22;9309;52.126;11.616;2023-03-23T07:44:55;11.60;78.50
18365;DHT22;9309;52.126;11.616;2023-03-23T07:47:23;11.70;78.60
18365;DHT22;9309;52.126;11.616;2023-03-23T07:49:50;11.90;77.70
18365;DHT22;9309;52.126;11.616;2023-03-23T07:52:28;11.90;77.90
18365;DHT22;9309;52.126;11.616;2023-03-23T07:54:55;12.00;76.90
18365;DHT22;9309;52.126;11.616;2023-03-23T07:57:34;12.00;76.90
18365;DHT22;9309;52.126;11.616;2023-03-23T08:00:02;12.00;76.90
18365;DHT22;9309;52.126;11.616;2023-03-23T08:02:45;12.00;76.80
18365;DHT22;9309;52.126;11.616;2023-03-23T08:05:26;11.90;77.20
18365;DHT22;9309;52.126;11.616;2023-03-23T08:08:22;12.00;77.10
18365;DHT22;9309;52.126;11.616;2023-03-23T08:11:07;12.10;76.90
18365;DHT22;9309;52.126;11.616;2023-03-23T08:13:50;12.10;76.50
18365;DHT22;9309;52.126;11.616;2023-03-23T08:16:34;12.00;76.80
18365;DHT22;9309;52.126;11.616;2023-03-23T08:19:12;12.00;76.10
18365;DHT22;9309;52.126;11.616;2023-03-23T08:21:57;12.10;76.20
18365;DHT22;9309;52.126;11.616;2023-03-23T08:24:44;12.10;76.10
18365;DHT22;9309;52.126;11.616;2023-03-23T08:27:50;12.10;76.10
18365;DHT22;9309;52.126;11.616;2023-03-23T08:30:28;12.10;75.80
18365;DHT22;9309;52.126;11.616;2023-03-23T08:33:08;12.20;75.60
18365;DHT22;9309;52.126;11.616;2023-03-23T08:35:57;12.30;75.20
18365;DHT22;9309;52.126;11.616;2023-03-23T08:38:39;12.30;74.70
18365;DHT22;9309;52.126;11.616;2023-03-23T08:41:33;12.40;74.60
18365;DHT22;9309;52.126;11.616;2023-03-23T08:44:11;12.40;74.50
18365;DHT22;9309;52.126;11.616;2023-03-23T08:46:57;12.50;74.80
18365;DHT22;9309;52.126;11.616;2023-03-23T08:49:43;12.70;73.90
18365;DHT22;9309;52.126;11.616;2023-03-23T08:52:32;12.90;72.80
18365;DHT22;9309;52.126;11.616;2023-03-23T08:55:21;12.80;72.50
18365;DHT22;9309;52.126;11.616;2023-03-23T08:58:10;12.80;72.60
18365;DHT22;9309;52.126;11.616;2023-03-23T09:01:05;12.70;73.10
18365;DHT22;9309;52.126;11.616;2023-03-23T09:03:51;12.90;72.50
18365;DHT22;9309;52.126;11.616;2023-03-23T09:06:30;13.20;72.10
18365;DHT22;9309;52.126;11.616;2023-03-23T09:09:00;13.30;70.60
18365;DHT22;9309;52.126;11.616;2023-03-23T09:11:32;13.30;71.20
18365;DHT22;9309;52.126;11.616;2023-03-23T09:13:59;13.20;71.00
18365;DHT22;9309;52.126;11.616;2023-03-23T09:16:26;13.20;71.10
18365;DHT22;9309;52.126;11.616;2023-03-23T09:18:53;13.10;71.20
18365;DHT22;9309;52.126;11.616;2023-03-23T09:21:20;13.20;71.50
18365;DHT22;9309;52.126;11.616;2023-03-23T09:23:47;13.30;70.60
18365;DHT22;9309;52.126;11.616;2023-03-23T09:26:15;13.40;70.60
18365;DHT22;9309;52.126;11.616;2023-03-23T09:28:42;13.40;69.90
18365;DHT22;9309;52.126;11.616;2023-03-23T09:31:10;13.50;69.60
18365;DHT22;9309;52.126;11.616;2023-03-23T09:33:37;13.70;69.30
18365;DHT22;9309;52.126;11.616;2023-03-23T09:36:04;14.00;68.40
18365;DHT22;9309;52.126;11.616;2023-03-23T09:38:33;14.20;67.50
18365;DHT22;9309;52.126;11.616;2023-03-23T09:41:22;14.40;67.60
18365;DHT22;9309;52.126;11.616;2023-03-23T09:44:00;14.40;66.40
18365;DHT22;9309;52.126;11.616;2023-03-23T09:46:46;14.40;67.00
18365;DHT22;9309;52.126;11.616;2023-03-23T09:49:17;14.40;66.40
18365;DHT22;9309;52.126;11.616;2023-03-23T09:51:49;14.30;65.90
18365;DHT22;9309;52.126;11.616;2023-03-23T09:54:21;14.30;66.50
18365;DHT22;9309;52.126;11.616;2023-03-23T09:56:49;14.30;66.20
18365;DHT22;9309;52.126;11.616;2023-03-23T09:59:20;14.40;65.90
18365;DHT22;9309;52.126;11.616;2023-03-23T10:01:52;14.60;65.80
18365;DHT22;9309;52.126;11.616;2023-03-23T10:04:28;14.70;64.50
18365;DHT22;9309;52.126;11.616;2023-03-23T10:06:58;14.60;65.10
18365;DHT22;9309;52.126;11.616;2023-03-23T10:09:26;14.50;65.30
18365;DHT22;9309;52.126;11.616;2023-03-23T10:12:02;14.60;65.00
18365;DHT22;9309;52.126;11.616;2023-03-23T10:14:49;14.90;64.40
18365;DHT22;9309;52.126;11.616;2023-03-23T10:17:21;14.90;64.40
18365;DHT22;9309;52.126;11.616;2023-03-23T10:19:54;15.10;63.70
18365;DHT22;9309;52.126;11.616;2023-03-23T10:22:26;15.20;62.90
18365;DHT22;9309;52.126;11.616;2023-03-23T10:25:02;15.30;62.60
18365;DHT22;9309;52.126;11.616;2023-03-23T10:27:33;15.20;61.80
18365;DHT22;9309;52.126;11.616;2023-03-23T10:30:13;15.20;61.60
18365;DHT22;9309;52.126;11.616;2023-03-23T10:32:44;15.10;61.70
18365;DHT22;9309;52.126;11.616;2023-03-23T10:35:18;15.00;60.50
18365;DHT22;9309;52.126;11.616;2023-03-23T10:37:48;15.00;60.20
18365;DHT22;9309;52.126;11.616;2023-03-23T10:40:18;15.20;60.70
18365;DHT22;9309;52.126;11.616;2023-03-23T10:42:46;15.50;60.20
18365;DHT22;9309;52.126;11.616;2023-03-23T10:45:19;15.90;58.50
18365;DHT22;9309;52.126;11.616;2023-03-23T10:47:57;16.00;58.50
18365;DHT22;9309;52.126;11.616;2023-03-23T10:50:28;15.90;57.60
18365;DHT22;9309;52.126;11.616;2023-03-23T10:52:57;15.80;59.00
18365;DHT22;9309;52.126;11.616;2023-03-23T10:55:34;15.60;57.80
18365;DHT22;9309;52.126;11.616;2023-03-23T10:58:02;15.60;57.80
18365;DHT22;9309;52.126;11.616;2023-03-23T11:00:31;15.70;57.60
18365;DHT22;9309;52.126;11.616;2023-03-23T11:03:00;15.80;57.50
18365;DHT22;9309;52.126;11.616;2023-03-23T11:05:34;15.90;57.40
18365;DHT22;9309;52.126;11.616;2023-03-23T11:08:01;16.30;56.90
18365;DHT22;9309;52.126;11.616;2023-03-23T11:10:35;16.30;55.50
18365;DHT22;9309;52.126;11.616;2023-03-23T11:13:02;16.20;56.30
18365;DHT22;9309;52.126;11.616;2023-03-23T11:15:37;16.00;56.30
18365;DHT22;9309;52.126;11.616;2023-03-23T11:18:06;15.80;56.70
18365;DHT22;9309;52.126;11.616;2023-03-23T11:20:37;15.80;57.00
18365;DHT22;9309;52.126;11.616;2023-03-23T11:23:17;15.70;56.50
18365;DHT22;9309;52.126;11.616;2023-03-23T11:25:55;15.70;56.00
18365;DHT22;9309;52.126;11.616;2023-03-23T11:28:26;15.80;57.50
18365;DHT22;9309;52.126;11.616;2023-03-23T11:30:55;15.90;56.80
18365;DHT22;9309;52.126;11.616;2023-03-23T11:33:23;15.90;56.30
18365;DHT22;9309;52.126;11.616;2023-03-23T11:35:53;15.70;57.00
18365;DHT22;9309;52.126;11.616;2023-03-23T11:38:22;15.80;57.10
18365;DHT22;9309;52.126;11.616;2023-03-23T11:40:51;15.80;55.70
18365;DHT22;9309;52.126;11.616;2023-03-23T11:43:20;15.90;55.90
18365;DHT22;9309;52.126;11.616;2023-03-23T11:45:53;15.90;56.00
18365;DHT22;9309;52.126;11.616;2023-03-23T11:48:28;15.80;54.70
18365;DHT22;9309;52.126;11.616;2023-03-23T11:51:00;16.00;55.20
18365;DHT22;9309;52.126;11.616;2023-03-23T11:53:35;16.20;55.20
18365;DHT22;9309;52.126;11.616;2023-03-23T11:56:13;16.30;55.40
18365;DHT22;9309;52.126;11.616;2023-03-23T11:58:42;16.40;53.00
18365;DHT22;9309;52.126;11.616;2023-03-23T12:01:16;16.30;53.40
18365;DHT22;9309;52.126;11.616;2023-03-23T12:03:58;16.30;54.10
18365;DHT22;9309;52.126;11.616;2023-03-23T12:06:34;16.20;53.30
18365;DHT22;9309;52.126;11.616;2023-03-23T12:09:11;16.30;52.80
18365;DHT22;9309;52.126;11.616;2023-03-23T12:11:49;16.30;52.70
18365;DHT22;9309;52.126;11.616;2023-03-23T12:14:21;16.50;52.20
18365;DHT22;9309;52.126;11.616;2023-03-23T12:16:56;17.60;49.90
18365;DHT22;9309;52.126;11.616;2023-03-23T12:19:31;17.70;50.10
18365;DHT22;9309;52.126;11.616;2023-03-23T12:22:08;17.90;49.60
18365;DHT22;9309;52.126;11.616;2023-03-23T12:24:49;17.70;49.10
18365;DHT22;9309;52.126;11.616;2023-03-23T12:27:22;17.30;49.90
18365;DHT22;9309;52.126;11.616;2023-03-23T12:30:16;16.90;51.70
18365;DHT22;9309;52.126;11.616;2023-03-23T12:32:55;17.50;50.70
18365;DHT22;9309;52.126;11.616;2023-03-23T12:35:33;19.00;47.50
18365;DHT22;9309;52.126;11.616;2023-03-23T12:38:16;20.00;44.70
18365;DHT22;9309;52.126;11.616;2023-03-23T12:41:00;21.10;42.60
18365;DHT22;9309;52.126;11.616;2023-03-23T12:43:34;20.40;42.90
18365;DHT22;9309;52.126;11.616;2023-03-23T12:46:19;21.80;40.70
18365;DHT22;9309;52.126;11.616;2023-03-23T12:48:51;22.00;40.10
18365;DHT22;9309;52.126;11.616;2023-03-23T12:51:25;20.70;41.30
18365;DHT22;9309;52.126;11.616;2023-03-23T12:53:57;19.50;43.30
18365;DHT22;9309;52.126;11.616;2023-03-23T12:56:29;19.90;42.30
18365;DHT22;9309;52.126;11.616;2023-03-23T12:59:03;19.60;43.40
18365;DHT22;9309;52.126;11.616;2023-03-23T13:01:37;20.50;41.90
18365;DHT22;9309;52.126;11.616;2023-03-23T13:04:08;21.40;40.00
18365;DHT22;9309;52.126;11.616;2023-03-23T13:06:39;21.90;38.00
18365;DHT22;9309;52.126;11.616;2023-03-23T13:09:11;21.70;38.00
18365;DHT22;9309;52.126;11.616;2023-03-23T13:11:41;22.00;37.30
18365;DHT22;9309;52.126;11.616;2023-03-23T13:14:21;22.40;36.20
18365;DHT22;9309;52.126;11.616;2023-03-23T13:16:57;20.70;39.40
18365;DHT22;9309;52.126;11.616;2023-03-23T13:19:35;20.00;40.70
18365;DHT22;9309;52.126;11.616;2023-03-23T13:22:09;21.10;38.70
18365;DHT22;9309;52.126;11.616;2023-03-23T13:24:42;21.50;37.90
18365;DHT22;9309;52.126;11.616;2023-03-23T13:27:09;20.50;39.30
18365;DHT22;9309;52.126;11.616;2023-03-23T13:29:43;20.90;38.70
18365;DHT22;9309;52.126;11.616;2023-03-23T13:32:17;21.60;37.00
18365;DHT22;9309;52.126;11.616;2023-03-23T13:34:46;22.20;36.60
18365;DHT22;9309;52.126;11.616;2023-03-23T13:37:22;21.50;36.80
18365;DHT22;9309;52.126;11.616;2023-03-23T13:39:52;20.40;39.00
18365;DHT22;9309;52.126;11.616;2023-03-23T13:42:23;20.00;40.30
18365;DHT22;9309;52.126;11.616;2023-03-23T13:45:18;19.40;40.90
18365;DHT22;9309;52.126;11.616;2023-03-23T13:47:46;18.40;43.20
18365;DHT22;9309;52.126;11.616;2023-03-23T13:50:26;17.60;45.20
18365;DHT22;9309;52.126;11.616;2023-03-23T13:52:58;18.50;43.80
18365;DHT22;9309;52.126;11.616;2023-03-23T13:55:42;19.80;40.50
18365;DHT22;9309;52.126;11.616;2023-03-23T13:58:22;19.00;41.20
18365;DHT22;9309;52.126;11.616;2023-03-23T14:01:01;18.20;42.50
18365;DHT22;9309;52.126;11.616;2023-03-23T14:03:35;18.10;43.30
18365;DHT22;9309;52.126;11.616;2023-03-23T14:06:04;17.60;44.20
18365;DHT22;9309;52.126;11.616;2023-03-23T14:08:44;17.40;44.30
18365;DHT22;9309;52.126;11.616;2023-03-23T14:11:18;17.20;45.20
18365;DHT22;9309;52.126;11.616;2023-03-23T14:13:59;17.30;45.80
18365;DHT22;9309;52.126;11.616;2023-03-23T14:16:31;17.30;46.00
18365;DHT22;9309;52.126;11.616;2023-03-23T14:19:00;17.20;46.00
18365;DHT22;9309;52.126;11.616;2023-03-23T14:21:34;17.20;46.80
18365;DHT22;9309;52.126;11.616;2023-03-23T14:24:08;17.10;47.60
18365;DHT22;9309;52.126;11.616;2023-03-23T14:26:35;17.20;47.20
18365;DHT22;9309;52.126;11.616;2023-03-23T14:29:05;17.20;47.00
18365;DHT22;9309;52.126;11.616;2023-03-23T14:31:32;17.00;46.40
18365;DHT22;9309;52.126;11.616;2023-03-23T14:34:03;16.80;46.50
18365;DHT22;9309;52.126;11.616;2023-03-23T14:36:31;16.70;47.20
18365;DHT22;9309;52.126;11.616;2023-03-23T14:39:04;16.70;47.00
18365;DHT22;9309;52.126;11.616;2023-03-23T14:41:34;16.70;47.20
18365;DHT22;9309;52.126;11.616;2023-03-23T14:44:03;17.10;46.90
18365;DHT22;9309;52.126;11.616;2023-03-23T14:46:31;17.50;45.90
18365;DHT22;9309;52.126;11.616;2023-03-23T14:49:00;17.70;45.60
18365;DHT22;9309;52.126;11.616;2023-03-23T14:51:27;17.60;45.40
18365;DHT22;9309;52.126;11.616;2023-03-23T14:53:54;17.50;46.00
18365;DHT22;9309;52.126;11.616;2023-03-23T14:56:23;17.80;46.20
18365;DHT22;9309;52.126;11.616;2023-03-23T14:58:54;18.00;45.70
18365;DHT22;9309;52.126;11.616;2023-03-23T15:01:24;17.60;46.20
18365;DHT22;9309;52.126;11.616;2023-03-23T15:03:55;17.30;47.10
18365;DHT22;9309;52.126;11.616;2023-03-23T15:06:25;17.10;47.50
18365;DHT22;9309;52.126;11.616;2023-03-23T15:08:56;17.10;47.50
18365;DHT22;9309;52.126;11.616;2023-03-23T15:11:28;17.20;47.80
18365;DHT22;9309;52.126;11.616;2023-03-23T15:13:58;17.10;48.00
18365;DHT22;9309;52.126;11.616;2023-03-23T15:16:30;17.00;47.80
18365;DHT22;9309;52.126;11.616;2023-03-23T15:18:59;16.80;48.40
18365;DHT22;9309;52.126;11.616;2023-03-23T15:21:28;16.70;48.60
18365;DHT22;9309;52.126;11.616;2023-03-23T15:23:56;16.60;49.20
18365;DHT22;9309;52.126;11.616;2023-03-23T15:26:28;16.60;50.10
18365;DHT22;9309;52.126;11.616;2023-03-23T15:29:12;16.40;50.30
18365;DHT22;9309;52.126;11.616;2023-03-23T15:31:41;16.20;50.20
18365;DHT22;9309;52.126;11.616;2023-03-23T15:34:16;16.20;51.70
18365;DHT22;9309;52.126;11.616;2023-03-23T15:36:44;16.10;51.70
18365;DHT22;9309;52.126;11.616;2023-03-23T15:43:14;15.90;52.00
18365;DHT22;9309;52.126;11.616;2023-03-23T15:45:52;15.80;52.70
18365;DHT22;9309;52.126;11.616;2023-03-23T15:48:19;15.80;53.80
18365;DHT22;9309;52.126;11.616;2023-03-23T15:50:46;15.70;54.60
18365;DHT22;9309;52.126;11.616;2023-03-23T15:53:27;15.60;56.20
18365;DHT22;9309;52.126;11.616;2023-03-23T15:55:54;15.30;56.80
18365;DHT22;9309;52.126;11.616;2023-03-23T15:58:22;15.30;57.80
18365;DHT22;9309;52.126;11.616;2023-03-23T16:00:50;15.20;57.60
18365;DHT22;9309;52.126;11.616;2023-03-23T16:03:21;15.30;57.90
18365;DHT22;9309;52.126;11.616;2023-03-23T16:05:49;15.40;58.20
18365;DHT22;9309;52.126;11.616;2023-03-23T16:08:16;15.30;58.70
18365;DHT22;9309;52.126;11.616;2023-03-23T16:10:43;15.30;59.10
18365;DHT22;9309;52.126;11.616;2023-03-23T16:13:10;15.10;59.50
18365;DHT22;9309;52.126;11.616;2023-03-23T16:15:38;15.00;60.30
18365;DHT22;9309;52.126;11.616;2023-03-23T16:18:05;14.90;60.70